Airfield :
LOGIN :

Register | Disclaimer

   EN    FR    IT 

 










Legend :    VFR   Marginal VFR   IFR   Intensive IFR   Very Intensive IFR
Visi :
Ceiling :
>= 8 km
>= 3000ft
5 to 8 km
1000 to 3000 ft
1500m to 5 km
500 to 1000 ft
800 to 1500m
200 to 500 ft
< 800m
< 200 ft
Symbols :   Thunderstorms  Fog  Heavy snow  Heavy precipitations  Wind > 20 kt
SIGMETs :     Misc.  Thunderstorms  Icing  Turbulence  Mountain Waves  Volcanic Ashes






- Airport Elevation : 502 ft
- IATA code : ORK


EICK - Cork

CURRENT METAR :
  • 081400Z 13006KT 080V170 9999 FEW028 20/13 Q1024 NOSIG

EXPIRED METARs :
  • 081330Z 16007KT 120V210 9999 SCT028 19/13 Q1024 NOSIG
  • 081300Z 16005KT 110V290 9999 FEW032 20/12 Q1024 NOSIG
  • 081230Z 20004KT 110V270 9999 FEW032 20/10 Q1024 NOSIG
  • 081200Z 30002KT 9999 FEW028 19/12 Q1024 NOSIG
  • 081130Z 30002KT 9999 FEW028 20/12 Q1024 NOSIG

TAF TAF EICK
Valid from the 08 at 12:00 until the 09 at 12:00 UTC


081100Z 0812/0912 VRB03KT 9999 FEW020
BECMG 0812/0814 16008KT
BECMG 0821/0823 VRB03KT
BECMG 0900/0902 33006KT
PROB30
TEMPO 0904/0907 4000 BR



MET'MAP, your aeronautical weather chart ! - Copyright ORBIFLY December 2007 - Disclaimer

ORBIFLY MET'MAP TEAM :

Programming & Development : Alexandra Zaïnal
Concept & original design : Baudouin d'Aumeries
Assistance for programming : Marc-Olivier Méhu
Technical & hardware support : Manuel Goepfert

Contact : metmap@orbifly.com




SOURCES & CREDITS :

   NOAA